Elk City, OK

9:11 PM CST on February 07, 2016 (GMT -0600)
Clinton-Sherman | | Change Station
CLOSE
Current Station
Airport
Location: Clinton-Sherman,
Elevation: 1923 ft
Nearby Weather Stations

Elev 1923 ft 35.34 °N, 99.20 °W | Updated 18 minutes ago

Clear
Clear
42 °F
Feels Like 36 °F
N
12
Wind Variable Wind from NNW

Today
High -- | Low -- °F
--% Chance of Precip.
Yesterday
High -- | Low -- °F
Precip. -- in
Pressure 30.36 in
Visibility 10.0 miles
Clouds Clear
Windchill 36 °F
Dew Point 13 °F
Humidity 31%
Rainfall 0.00 in
Snow Depth Not available.
7:32 AM 6:11 PM
Waning Crescent, 0% visible
METAR KCSM 080253Z AUTO 33010KT 10SM CLR 06/M11 A3034 RMK AO2 PK WND 35027/0204 SLP280 T00561106 51039
Pressure 30.36 in
Visibility 10.0 miles
Clouds Clear
Windchill 36 °F
Dew Point 13 °F
Humidity 31%
Rainfall 0.00 in
Snow Depth Not available.
7:32 AM 6:11 PM
Waning Crescent, 0% visible
METAR KCSM 080253Z AUTO 33010KT 10SM CLR 06/M11 A3034 RMK AO2 PK WND 35027/0204 SLP280 T00561106 51039

10-Day Weather Forecast

Almanac

Astronomy

Feb. 07, 2016 Rise Set
Actual Time
Civil Twilight
Nautical Twilight
Astronomical Twilight
Moon
Length of Visible Light
Length of Day
Tomorrow will be .
, % of the Moon is Illuminated

Today's Extremes

State Highs State Lows

Community

WunderPhotos

Upload Photos

1,891,375 photos uploaded!

WunderBlog® & News

Nearby

Air Quality

  Air Quality AQ Index Pollutant
Not available.

Snow Depth

Station Depth Elevation

Earthquake Activity

City Distance Mag. Time & Date
Minimum magnitude displayed is 2.5.

Coastal Water Temperatures

Place Temperature

Stations

Nearby Weather Stations

Station Location Temp. Windchill Dew Point Humidity Wind Precip. Elev Updated Type
                   

Watches & Warnings

There are currently no watches in effect.